createdAt,value
2022-09-02T00:02:12.513Z,18.51
2022-09-02T00:04:40.686Z,18.49
2022-09-02T00:07:09.051Z,18.46
2022-09-02T00:09:37.707Z,18.31
2022-09-02T00:12:06.855Z,18.32
2022-09-02T00:14:39.505Z,18.32
2022-09-02T00:17:07.561Z,18.31
2022-09-02T00:19:36.156Z,18.25
2022-09-02T00:22:05.165Z,18.35
2022-09-02T00:24:33.469Z,18.26
2022-09-02T00:27:01.609Z,18.24
2022-09-02T00:29:30.127Z,18.25
2022-09-02T00:32:00.412Z,18.21
2022-09-02T00:34:28.712Z,18.11
2022-09-02T00:36:56.907Z,18.10
2022-09-02T00:39:26.189Z,18.08
2022-09-02T00:41:54.343Z,18.06
2022-09-02T00:44:22.795Z,17.96
2022-09-02T00:46:51.025Z,17.94
2022-09-02T00:49:25.476Z,17.92
2022-09-02T00:51:58.645Z,17.87
2022-09-02T00:54:30.505Z,17.87
2022-09-02T00:56:59.874Z,17.85
2022-09-02T00:59:42.176Z,17.85
2022-09-02T01:02:10.449Z,17.80
2022-09-02T01:04:40.560Z,17.73
2022-09-02T01:07:09.594Z,17.81
2022-09-02T01:09:37.964Z,17.79
2022-09-02T01:12:07.123Z,17.69
2022-09-02T01:14:35.551Z,17.74
2022-09-02T01:17:05.284Z,17.72
2022-09-02T01:19:37.774Z,17.63
2022-09-02T01:22:19.685Z,17.66
2022-09-02T01:24:47.713Z,17.63
2022-09-02T01:27:18.378Z,17.64
2022-09-02T01:29:53.972Z,17.61
2022-09-02T01:32:22.512Z,17.51
2022-09-02T01:34:50.740Z,17.42
2022-09-02T01:37:21.416Z,17.38
2022-09-02T01:39:50.708Z,17.35
2022-09-02T01:42:19.498Z,17.38
2022-09-02T01:44:47.792Z,17.34
2022-09-02T01:47:19.309Z,17.26
2022-09-02T01:49:48.220Z,17.23
2022-09-02T01:52:18.053Z,17.21
2022-09-02T01:54:48.650Z,17.22
2022-09-02T01:57:17.286Z,17.18
2022-09-02T01:59:46.270Z,17.17
2022-09-02T02:02:18.255Z,17.18
2022-09-02T02:04:46.748Z,17.17
2022-09-02T02:07:16.350Z,17.12
2022-09-02T02:09:44.958Z,17.03
2022-09-02T02:12:17.537Z,17.03
2022-09-02T02:14:45.987Z,16.91
2022-09-02T02:17:14.167Z,16.92
2022-09-02T02:19:43.783Z,16.88
2022-09-02T02:22:14.088Z,16.82
2022-09-02T02:24:42.127Z,16.72
2022-09-02T02:27:10.109Z,16.69
2022-09-02T02:29:40.105Z,16.73
2022-09-02T02:32:08.606Z,16.65
2022-09-02T02:34:37.272Z,16.70
2022-09-02T02:37:06.032Z,16.65
2022-09-02T02:39:34.294Z,16.65
2022-09-02T02:42:02.740Z,16.59
2022-09-02T02:44:31.582Z,16.59
2022-09-02T02:47:02.395Z,16.61
2022-09-02T02:49:30.591Z,16.60
2022-09-02T02:51:58.863Z,16.56
2022-09-02T02:54:27.473Z,16.47
2022-09-02T02:57:04.284Z,16.43
2022-09-02T02:59:32.762Z,16.37
2022-09-02T03:02:02.240Z,16.37
2022-09-02T03:04:30.439Z,16.32
2022-09-02T03:06:58.682Z,16.42
2022-09-02T03:09:27.543Z,16.42
2022-09-02T03:11:55.990Z,16.37
2022-09-02T03:14:24.771Z,16.26
2022-09-02T03:16:53.593Z,16.34
2022-09-02T03:19:23.172Z,16.40
2022-09-02T03:21:51.818Z,16.33
2022-09-02T03:24:20.009Z,16.37
2022-09-02T03:26:48.332Z,16.35
2022-09-02T03:29:17.116Z,16.38
2022-09-02T03:31:46.174Z,16.38
2022-09-02T03:34:14.693Z,16.37
2022-09-02T03:36:45.190Z,16.33
2022-09-02T03:39:15.805Z,16.31
2022-09-02T03:41:45.595Z,16.16
2022-09-02T03:44:13.879Z,16.17
2022-09-02T03:46:43.342Z,16.40
2022-09-02T03:49:12.604Z,16.26
2022-09-02T03:51:44.002Z,16.08
2022-09-02T03:54:12.546Z,16.06
2022-09-02T03:56:42.087Z,16.13
2022-09-02T03:59:11.110Z,16.12
2022-09-02T04:01:39.865Z,16.13
2022-09-02T04:04:08.654Z,16.03
2022-09-02T04:06:39.085Z,16.02
2022-09-02T04:09:08.568Z,15.95
2022-09-02T04:11:42.678Z,15.88
2022-09-02T04:14:12.395Z,16.09
2022-09-02T04:16:41.115Z,16.00
2022-09-02T04:19:10.511Z,16.09
2022-09-02T04:21:41.852Z,16.00
2022-09-02T04:24:13.592Z,15.95
2022-09-02T04:26:46.116Z,16.07
2022-09-02T04:29:17.194Z,15.97
2022-09-02T04:31:48.808Z,16.00
2022-09-02T04:34:17.175Z,15.94
2022-09-02T04:36:45.785Z,15.82
2022-09-02T04:39:16.332Z,15.93
2022-09-02T04:41:45.409Z,16.00
2022-09-02T04:44:15.190Z,15.94
2022-09-02T04:46:48.455Z,15.90
2022-09-02T04:49:21.212Z,15.93
2022-09-02T04:51:54.400Z,15.96
2022-09-02T04:57:34.962Z,15.95
2022-09-02T05:00:06.804Z,15.94
2022-09-02T05:02:35.633Z,15.99
2022-09-02T05:05:03.927Z,15.95
2022-09-02T05:07:38.429Z,16.06
2022-09-02T05:10:09.344Z,16.01
2022-09-02T05:12:41.947Z,16.05
2022-09-02T05:15:12.236Z,16.00
2022-09-02T05:17:40.664Z,16.04
2022-09-02T05:20:10.627Z,16.18
2022-09-02T05:22:39.919Z,16.17
2022-09-02T05:25:11.906Z,16.01
2022-09-02T05:27:40.339Z,16.22
2022-09-02T05:30:10.110Z,16.14
2022-09-02T05:32:38.302Z,16.09
2022-09-02T05:35:08.195Z,16.12
2022-09-02T05:37:37.625Z,16.17
2022-09-02T05:40:09.074Z,16.10
2022-09-02T05:42:41.517Z,16.22
2022-09-02T05:45:12.060Z,16.12
2022-09-02T05:47:44.693Z,16.18
2022-09-02T05:50:15.084Z,16.20
2022-09-02T05:52:46.386Z,16.24
2022-09-02T05:55:14.411Z,16.23
2022-09-02T05:57:46.145Z,16.32
2022-09-02T06:00:17.954Z,16.29
2022-09-02T06:02:59.195Z,16.35
2022-09-02T06:05:38.413Z,16.41
2022-09-02T06:08:20.256Z,16.41
2022-09-02T06:10:48.564Z,16.51
2022-09-02T06:13:22.807Z,16.60
2022-09-02T06:15:53.553Z,16.67
2022-09-02T06:18:26.804Z,16.70
2022-09-02T06:20:57.093Z,16.71
2022-09-02T06:23:29.343Z,16.76
2022-09-02T06:26:01.420Z,16.76
2022-09-02T06:28:32.270Z,16.84
2022-09-02T06:31:01.899Z,16.85
2022-09-02T06:33:30.120Z,16.85
2022-09-02T06:35:59.405Z,16.85
2022-09-02T06:38:27.645Z,16.79
2022-09-02T06:40:56.725Z,16.80
2022-09-02T06:43:42.709Z,16.72
2022-09-02T06:46:26.768Z,16.76
2022-09-02T06:49:01.540Z,16.83
2022-09-02T06:51:33.563Z,16.80
2022-09-02T06:55:11.906Z,16.84
2022-09-02T06:57:41.159Z,16.86
2022-09-02T07:00:16.660Z,16.98
2022-09-02T07:03:04.876Z,17.03
2022-09-02T07:05:34.457Z,17.19
2022-09-02T07:08:02.561Z,17.26
2022-09-02T07:10:30.727Z,17.35
2022-09-02T07:13:03.661Z,17.44
2022-09-02T07:15:36.463Z,17.57
2022-09-02T07:18:57.333Z,17.70
2022-09-02T07:21:29.173Z,18.17
2022-09-02T07:23:59.667Z,18.10
2022-09-02T07:26:29.651Z,18.11
2022-09-02T07:28:58.509Z,18.13
2022-09-02T07:31:29.414Z,18.17
2022-09-02T07:33:59.474Z,18.22
2022-09-02T07:36:29.237Z,18.22
2022-09-02T07:38:59.233Z,18.29
2022-09-02T07:41:30.116Z,18.29
2022-09-02T07:43:59.846Z,18.29
2022-09-02T07:46:32.269Z,18.36
2022-09-02T07:49:01.056Z,18.44
2022-09-02T07:51:30.719Z,18.59
2022-09-02T07:54:00.685Z,18.69
2022-09-02T07:56:29.236Z,18.90
2022-09-02T07:58:58.029Z,18.86
2022-09-02T08:01:26.846Z,18.92
2022-09-02T08:03:59.371Z,18.98
2022-09-02T08:06:34.697Z,19.07
2022-09-02T08:09:04.712Z,19.12
2022-09-02T08:11:33.825Z,19.24
2022-09-02T08:14:03.210Z,19.46
2022-09-02T08:16:31.822Z,19.36
2022-09-02T08:19:01.542Z,19.32
2022-09-02T08:21:29.751Z,19.35
2022-09-02T08:23:58.975Z,19.47
2022-09-02T08:26:28.458Z,19.52
2022-09-02T08:28:56.910Z,19.56
2022-09-02T08:31:26.195Z,19.74
2022-09-02T08:33:54.494Z,19.72
2022-09-02T08:36:23.993Z,19.75
2022-09-02T08:38:52.223Z,19.68
2022-09-02T08:41:23.453Z,19.75
2022-09-02T08:43:54.051Z,19.74
2022-09-02T08:46:26.018Z,20.06
2022-09-02T08:48:59.420Z,20.05
2022-09-02T08:51:37.621Z,20.36
2022-09-02T08:54:10.949Z,20.28
2022-09-02T08:56:42.607Z,20.13
2022-09-02T08:59:13.118Z,20.17
2022-09-02T09:01:49.532Z,20.31
2022-09-02T09:04:22.073Z,20.40
2022-09-02T09:07:12.870Z,20.50
2022-09-02T09:09:55.142Z,20.76
2022-09-02T09:12:34.369Z,20.94
2022-09-02T09:15:10.560Z,21.07
2022-09-02T09:17:45.801Z,21.03
2022-09-02T09:20:19.688Z,21.48
2022-09-02T09:22:52.202Z,21.73
2022-09-02T09:25:20.783Z,21.51
2022-09-02T09:27:48.919Z,21.96
2022-09-02T09:30:17.840Z,21.83
2022-09-02T09:32:49.040Z,22.06
2022-09-02T09:35:18.091Z,21.98
2022-09-02T09:37:48.153Z,21.98
2022-09-02T09:40:32.350Z,22.04
2022-09-02T09:43:15.170Z,22.28
2022-09-02T09:45:45.767Z,22.23
2022-09-02T09:48:27.917Z,22.21
2022-09-02T09:51:17.306Z,22.30
2022-09-02T09:53:46.362Z,22.38
2022-09-02T09:56:37.602Z,22.36
2022-09-02T09:59:10.136Z,22.41
2022-09-02T10:01:38.517Z,22.65
2022-09-02T10:04:26.233Z,22.61
2022-09-02T10:06:58.503Z,22.52
2022-09-02T10:09:32.621Z,22.57
2022-09-02T10:12:05.195Z,22.70
2022-09-02T10:14:39.219Z,23.07
2022-09-02T10:17:26.151Z,23.05
2022-09-02T10:20:01.156Z,22.80
2022-09-02T10:23:01.934Z,22.67
2022-09-02T10:25:38.564Z,22.96
2022-09-02T10:28:22.799Z,22.82
2022-09-02T10:30:59.833Z,22.83
2022-09-02T10:33:36.181Z,22.76
2022-09-02T10:36:14.001Z,22.75
2022-09-02T10:38:47.855Z,22.55
2022-09-02T10:41:27.643Z,22.65
2022-09-02T10:44:13.818Z,22.87
2022-09-02T10:46:54.942Z,23.00
2022-09-02T10:49:32.889Z,23.39
2022-09-02T10:52:11.383Z,23.51
2022-09-02T10:54:50.446Z,23.46
2022-09-02T10:57:25.649Z,23.41
2022-09-02T11:00:02.875Z,23.22
2022-09-02T11:02:38.975Z,23.21
2022-09-02T11:05:14.045Z,23.45
2022-09-02T11:07:49.617Z,23.36
2022-09-02T11:10:23.372Z,23.03
2022-09-02T11:12:56.746Z,23.44
2022-09-02T11:15:37.153Z,23.33
2022-09-02T11:18:15.932Z,23.66
2022-09-02T11:20:50.851Z,23.56
2022-09-02T11:23:28.131Z,23.46
2022-09-02T11:26:03.356Z,23.70
2022-09-02T11:28:39.669Z,23.83
2022-09-02T11:31:18.323Z,23.93
2022-09-02T11:33:54.486Z,23.87
2022-09-02T11:36:23.068Z,24.06
2022-09-02T11:38:58.589Z,23.88
2022-09-02T11:41:35.870Z,24.05
2022-09-02T11:44:22.547Z,23.80
2022-09-02T11:47:08.075Z,23.84
2022-09-02T11:50:11.147Z,23.81
2022-09-02T11:52:58.096Z,23.98
2022-09-02T11:55:33.244Z,23.84
2022-09-02T11:58:02.875Z,23.87
2022-09-02T12:00:34.753Z,23.81
2022-09-02T12:03:43.057Z,23.92
2022-09-02T12:06:13.913Z,23.85
2022-09-02T12:09:06.674Z,24.30
2022-09-02T12:11:45.571Z,24.30
2022-09-02T12:15:07.261Z,24.32
2022-09-02T12:17:55.236Z,23.83
2022-09-02T12:21:15.973Z,24.07
2022-09-02T12:24:26.499Z,23.80
2022-09-02T12:27:25.370Z,23.93
2022-09-02T12:29:55.608Z,24.20
2022-09-02T12:33:09.721Z,23.97
2022-09-02T12:35:57.782Z,24.53
2022-09-02T12:38:31.351Z,24.73
2022-09-02T12:41:13.302Z,24.86
2022-09-02T12:43:53.789Z,24.85
2022-09-02T12:46:29.592Z,24.50
2022-09-02T12:49:05.609Z,24.33
2022-09-02T12:51:56.491Z,24.22
2022-09-02T12:54:31.192Z,24.59
2022-09-02T12:57:00.021Z,24.36
2022-09-02T12:59:31.392Z,24.54
2022-09-02T13:02:17.034Z,24.49
2022-09-02T13:04:57.854Z,24.77
2022-09-02T13:07:59.833Z,24.66
2022-09-02T13:11:04.734Z,24.43
2022-09-02T13:14:13.839Z,24.55
2022-09-02T13:16:53.789Z,24.40
2022-09-02T13:19:51.353Z,24.20
2022-09-02T13:23:11.822Z,24.10
2022-09-02T13:26:05.597Z,24.16
2022-09-02T13:29:15.080Z,24.56
2022-09-02T13:31:43.639Z,24.57
2022-09-02T13:34:14.684Z,24.72
2022-09-02T13:36:45.758Z,24.84
2022-09-02T13:39:18.225Z,24.50
2022-09-02T13:41:46.454Z,24.75
2022-09-02T13:44:22.623Z,24.82
2022-09-02T13:46:54.224Z,24.85
2022-09-02T13:49:24.924Z,24.77
2022-09-02T13:51:55.074Z,24.65
2022-09-02T13:54:34.969Z,24.52
2022-09-02T13:57:06.115Z,24.54
2022-09-02T13:59:40.895Z,24.26
2022-09-02T14:02:21.969Z,24.14
2022-09-02T14:04:53.457Z,24.53
2022-09-02T14:07:31.630Z,24.60
2022-09-02T14:10:04.062Z,24.55
2022-09-02T14:12:35.058Z,24.52
2022-09-02T14:15:03.797Z,24.61
2022-09-02T14:17:36.257Z,24.39
2022-09-02T14:20:17.844Z,24.36
2022-09-02T14:22:53.280Z,24.33
2022-09-02T14:25:27.241Z,24.43
2022-09-02T14:27:58.126Z,24.51
2022-09-02T14:30:34.972Z,24.52
2022-09-02T14:33:27.398Z,24.70
2022-09-02T14:36:00.965Z,24.97
2022-09-02T14:38:32.392Z,24.89
2022-09-02T14:41:03.940Z,24.78
2022-09-02T14:43:47.599Z,24.79
2022-09-02T14:46:25.298Z,24.78
2022-09-02T14:49:00.673Z,24.77
2022-09-02T14:51:36.119Z,24.93
2022-09-02T14:54:05.732Z,24.75
2022-09-02T14:56:56.973Z,24.85
2022-09-02T14:59:27.298Z,24.82
2022-09-02T15:01:58.385Z,24.59
2022-09-02T15:04:27.705Z,24.78
2022-09-02T15:06:56.929Z,24.90
2022-09-02T15:09:25.458Z,25.01
2022-09-02T15:12:02.661Z,25.13
2022-09-02T15:14:31.341Z,25.14
2022-09-02T15:16:59.766Z,25.26
2022-09-02T15:19:27.971Z,25.12
2022-09-02T15:21:56.268Z,25.19
2022-09-02T15:24:24.585Z,25.09
2022-09-02T15:26:53.157Z,25.12
2022-09-02T15:29:26.945Z,25.10
2022-09-02T15:31:59.891Z,24.98
2022-09-02T15:34:27.966Z,24.76
2022-09-02T15:36:57.306Z,24.83
2022-09-02T15:39:26.005Z,24.98
2022-09-02T15:41:55.363Z,24.87
2022-09-02T15:44:25.935Z,24.80
2022-09-02T15:46:54.345Z,24.87
2022-09-02T15:49:23.642Z,24.85
2022-09-02T15:51:55.194Z,25.01
2022-09-02T15:54:24.865Z,24.90
2022-09-02T15:56:57.060Z,24.96
2022-09-02T15:59:28.176Z,25.08
2022-09-02T16:01:58.827Z,24.99
2022-09-02T16:04:29.380Z,24.87
2022-09-02T16:06:57.649Z,24.90
2022-09-02T16:09:26.354Z,24.66
2022-09-02T16:11:56.155Z,24.60
2022-09-02T16:14:27.597Z,24.71
2022-09-02T16:16:57.505Z,24.62
2022-09-02T16:19:29.987Z,24.64
2022-09-02T16:21:59.082Z,25.03
2022-09-02T16:24:27.687Z,25.29
2022-09-02T16:26:55.781Z,24.96
2022-09-02T16:29:24.222Z,24.91
2022-09-02T16:32:07.866Z,24.92
2022-09-02T16:34:42.380Z,24.92
2022-09-02T16:37:10.494Z,24.74
2022-09-02T16:39:38.923Z,24.66
2022-09-02T16:42:07.310Z,24.67
2022-09-02T16:44:35.812Z,24.35
2022-09-02T16:47:05.540Z,24.57
2022-09-02T16:49:34.827Z,24.63
2022-09-02T16:52:03.096Z,24.57
2022-09-02T16:54:32.960Z,24.49
2022-09-02T16:57:03.756Z,24.38
2022-09-02T16:59:31.892Z,24.17
2022-09-02T17:02:00.330Z,24.37
2022-09-02T17:04:30.102Z,24.54
2022-09-02T17:06:58.367Z,24.37
2022-09-02T17:09:26.677Z,24.30
2022-09-02T17:11:55.002Z,24.31
2022-09-02T17:14:23.440Z,24.32
2022-09-02T17:16:52.864Z,24.25
2022-09-02T17:19:22.729Z,24.32
2022-09-02T17:21:53.848Z,24.10
2022-09-02T17:24:24.379Z,24.21
2022-09-02T17:26:56.018Z,24.09
2022-09-02T17:29:48.174Z,24.10
2022-09-02T17:32:16.873Z,23.93
2022-09-02T17:34:45.689Z,24.09
2022-09-02T17:37:15.259Z,23.96
2022-09-02T17:39:43.690Z,23.77
2022-09-02T17:42:12.134Z,23.80
2022-09-02T17:44:40.584Z,23.76
2022-09-02T17:47:10.544Z,23.68
2022-09-02T17:49:42.353Z,23.65
2022-09-02T17:52:11.468Z,23.63
2022-09-02T17:54:42.680Z,23.46
2022-09-02T17:57:25.536Z,23.45
2022-09-02T18:00:06.898Z,23.47
2022-09-02T18:03:13.945Z,23.26
2022-09-02T18:05:54.765Z,23.28
2022-09-02T18:08:35.678Z,23.21
2022-09-02T18:11:07.407Z,23.13
2022-09-02T18:13:54.430Z,22.99
2022-09-02T18:16:37.073Z,22.89
2022-09-02T18:19:13.665Z,22.91
2022-09-02T18:22:06.261Z,22.83
2022-09-02T18:25:00.417Z,22.87
2022-09-02T18:27:41.481Z,22.79
2022-09-02T18:30:11.769Z,22.77
2022-09-02T18:32:59.789Z,22.62
2022-09-02T18:35:39.576Z,22.54
2022-09-02T18:38:15.962Z,22.57
2022-09-02T18:40:50.479Z,22.44
2022-09-02T18:43:26.764Z,22.28
2022-09-02T18:46:00.932Z,22.23
2022-09-02T18:48:32.576Z,22.20
2022-09-02T18:51:06.640Z,22.14
2022-09-02T18:53:40.498Z,22.08
2022-09-02T18:56:11.577Z,21.99
2022-09-02T18:58:45.343Z,21.94
2022-09-02T19:01:21.599Z,21.91
2022-09-02T19:03:50.398Z,21.84
2022-09-02T19:06:21.225Z,21.81
2022-09-02T19:08:55.250Z,21.78
2022-09-02T19:11:24.164Z,21.74
2022-09-02T19:13:56.029Z,21.69
2022-09-02T19:16:27.964Z,21.79
2022-09-02T19:18:56.451Z,21.85
2022-09-02T19:21:34.952Z,21.73
2022-09-02T19:24:05.309Z,21.67
2022-09-02T19:26:34.301Z,21.68
2022-09-02T19:29:04.931Z,21.64
2022-09-02T19:31:33.370Z,21.55
2022-09-02T19:34:04.507Z,21.56
2022-09-02T19:36:34.250Z,21.56
2022-09-02T19:39:02.405Z,21.48
2022-09-02T19:41:30.524Z,21.43
2022-09-02T19:44:00.248Z,21.46
2022-09-02T19:47:30.791Z,21.39
2022-09-02T19:49:18.107Z,21.38
2022-09-02T19:51:47.202Z,21.31
2022-09-02T19:54:17.880Z,21.17
2022-09-02T19:56:46.285Z,21.16
2022-09-02T19:59:14.514Z,21.10
2022-09-02T20:01:44.154Z,21.11
2022-09-02T20:04:12.374Z,21.05
2022-09-02T20:06:43.327Z,20.97
2022-09-02T20:09:12.726Z,20.89
2022-09-02T20:11:41.182Z,20.84
2022-09-02T20:14:09.428Z,20.77
2022-09-02T20:16:37.534Z,20.70
2022-09-02T20:19:07.192Z,20.63
2022-09-02T20:21:42.185Z,20.56
2022-09-02T20:24:12.257Z,20.51
2022-09-02T20:26:49.836Z,20.50
2022-09-02T20:29:34.755Z,20.44
2022-09-02T20:32:14.222Z,20.37
2022-09-02T20:34:57.328Z,20.34
2022-09-02T20:37:36.004Z,20.33
2022-09-02T20:40:27.260Z,20.25
2022-09-02T20:43:28.332Z,20.23
2022-09-02T20:45:59.559Z,20.16
2022-09-02T20:48:45.128Z,20.09
2022-09-02T20:51:23.733Z,20.10
2022-09-02T20:54:08.831Z,20.04
2022-09-02T20:56:46.842Z,20.03
2022-09-02T20:59:22.780Z,19.97
2022-09-02T21:01:56.807Z,19.99
2022-09-02T21:04:32.823Z,19.94
2022-09-02T21:07:08.411Z,19.90
2022-09-02T21:09:43.708Z,19.94
2022-09-02T21:12:19.764Z,19.93
2022-09-02T21:14:51.577Z,19.93
2022-09-02T21:17:28.610Z,19.91
2022-09-02T21:20:07.861Z,19.95
2022-09-02T21:22:41.094Z,19.88
2022-09-02T21:25:13.548Z,19.92
2022-09-02T21:27:51.947Z,19.91
2022-09-02T21:30:23.090Z,19.84
2022-09-02T21:32:53.487Z,19.81
2022-09-02T21:35:25.440Z,19.91
2022-09-02T21:38:02.552Z,19.93
2022-09-02T21:40:49.562Z,20.13
2022-09-02T21:43:32.277Z,19.98
2022-09-02T21:46:08.593Z,19.99
2022-09-02T21:48:50.845Z,19.98
2022-09-02T21:51:25.722Z,19.98
2022-09-02T21:54:05.910Z,20.02
2022-09-02T21:56:50.037Z,19.92
2022-09-02T21:59:38.557Z,19.88
2022-09-02T22:02:12.753Z,19.90
2022-09-02T22:04:56.207Z,19.81
2022-09-02T22:07:34.985Z,19.83
2022-09-02T22:10:20.877Z,19.81
2022-09-02T22:12:52.827Z,19.85
2022-09-02T22:15:32.100Z,19.77
2022-09-02T22:18:10.891Z,19.75
2022-09-02T22:20:43.824Z,19.75
2022-09-02T22:23:23.851Z,19.68
2022-09-02T22:25:54.089Z,19.63
2022-09-02T22:28:31.175Z,19.64
2022-09-02T22:31:05.543Z,19.70
2022-09-02T22:33:40.392Z,19.62
2022-09-02T22:36:14.750Z,19.58
2022-09-02T22:38:47.061Z,19.76
2022-09-02T22:41:24.978Z,19.72
2022-09-02T22:43:57.279Z,19.67
2022-09-02T22:46:50.882Z,19.61
2022-09-02T22:49:45.369Z,19.72
2022-09-02T22:52:44.362Z,19.71
2022-09-02T22:55:13.727Z,19.67
2022-09-02T22:57:52.185Z,19.72
2022-09-02T23:00:24.375Z,19.54
2022-09-02T23:03:02.391Z,19.57
2022-09-02T23:05:47.875Z,19.54
2022-09-02T23:08:17.848Z,19.60
2022-09-02T23:10:53.430Z,19.64
2022-09-02T23:13:36.223Z,19.52
2022-09-02T23:16:11.974Z,19.32
2022-09-02T23:18:49.278Z,19.32
2022-09-02T23:21:27.269Z,19.38
2022-09-02T23:24:04.006Z,19.32
2022-09-02T23:26:37.831Z,19.34
2022-09-02T23:29:25.834Z,19.32
2022-09-02T23:32:33.946Z,19.38
2022-09-02T23:35:17.346Z,19.23
2022-09-02T23:38:05.459Z,19.18
2022-09-02T23:40:40.874Z,19.20
2022-09-02T23:43:10.000Z,19.16
2022-09-02T23:45:39.774Z,19.15
2022-09-02T23:48:20.778Z,19.07
2022-09-02T23:51:05.492Z,19.05
2022-09-02T23:53:40.346Z,19.04
2022-09-02T23:56:21.651Z,19.01
2022-09-02T23:59:09.209Z,18.97
